Time;durP1;ratioP1;P1;durP2;ratioP2;P2;SDS_P1;SDS_P2;PMS_P1;PMS_P2;Temp;Humidity;BMP_temperature;BMP_pressure;BME280_temperature;BME280_humidity;BME280_pressure;Samples;Min_cycle;Max_cycle;Signal;HPM_P1;HPM_P2
2022/05/14 00:01:44;;;;;;;2.92;1.10;;;;;;;4.67;92.04;99108.75;5079870;28;20116;-57
2022/05/14 00:04:16;;;;;;;1.02;1.00;;;;;;;4.67;91.99;99097.56;5079673;28;20277;-58
2022/05/14 00:06:47;;;;;;;1.00;1.00;;;;;;;4.75;92.16;99050.00;5079808;28;20330;-57
2022/05/14 00:09:18;;;;;;;0.90;0.90;;;;;;;5.00;91.80;99069.56;5079457;28;20146;-57
2022/05/14 00:14:35;;;;;;;0.68;0.68;;;;;;;5.22;90.98;99039.03;5079375;28;20066;-58
2022/05/14 00:17:06;;;;;;;0.88;0.85;;;;;;;5.17;90.91;99027.03;5079372;28;20056;-56
2022/05/14 00:19:38;;;;;;;2.25;0.90;;;;;;;5.15;91.38;99028.78;5079335;28;20044;-56
2022/05/14 00:22:09;;;;;;;0.80;0.80;;;;;;;5.03;91.05;99020.31;5079438;28;20112;-56
2022/05/14 00:24:39;;;;;;;0.80;0.80;;;;;;;4.87;90.74;99032.63;5079295;28;20087;-57
2022/05/14 00:27:10;;;;;;;1.23;1.13;;;;;;;4.68;91.33;99027.66;5079088;28;20116;-56
2022/05/14 00:29:41;;;;;;;1.70;1.45;;;;;;;4.56;92.11;99025.22;5079047;28;20370;-53
2022/05/14 00:32:11;;;;;;;1.65;1.30;;;;;;;4.48;92.90;99024.47;5079165;28;20059;-55
2022/05/14 00:34:43;;;;;;;1.95;1.23;;;;;;;4.42;92.23;99025.41;5079303;28;20112;-56
2022/05/14 00:37:14;;;;;;;1.10;0.98;;;;;;;4.29;92.85;98998.81;5075711;28;20771;-56
2022/05/14 00:39:45;;;;;;;2.40;1.10;;;;;;;4.22;93.05;99023.03;5078680;28;20433;-54
2022/05/14 00:42:15;;;;;;;1.33;1.00;;;;;;;4.15;92.83;99005.03;5076829;28;20354;-55
2022/05/14 00:44:46;;;;;;;1.52;1.15;;;;;;;4.20;92.70;98998.91;5075984;28;20053;-55
2022/05/14 00:47:19;;;;;;;1.02;0.90;;;;;;;4.10;92.71;98992.13;5076093;28;20085;-54
2022/05/14 00:49:51;;;;;;;1.88;0.90;;;;;;;4.10;92.54;98999.88;5077891;28;20059;-55
2022/05/14 00:52:24;;;;;;;0.77;0.77;;;;;;;3.80;93.27;98947.66;5075251;28;20095;-55
2022/05/14 00:55:00;;;;;;;0.77;0.77;;;;;;;4.03;92.32;98964.63;5078381;28;20223;-56
2022/05/14 00:57:36;;;;;;;0.70;0.70;;;;;;;4.07;92.62;98961.16;5075734;28;20079;-56
2022/05/14 01:00:15;;;;;;;0.85;0.85;;;;;;;4.17;93.20;98973.09;5075070;28;20047;-56
2022/05/14 01:02:46;;;;;;;0.90;0.80;;;;;;;4.24;92.73;98968.69;5077921;28;20100;-55
2022/05/14 01:05:20;;;;;;;0.60;0.60;;;;;;;4.30;92.57;98972.06;5077825;28;20052;-56
2022/05/14 01:07:53;;;;;;;0.75;0.75;;;;;;;4.06;92.08;98924.09;5075102;28;20095;-55
2022/05/14 01:10:27;;;;;;;0.60;0.60;;;;;;;4.19;92.35;98932.53;5077241;28;20275;-54
2022/05/14 01:13:02;;;;;;;0.60;0.60;;;;;;;4.16;92.40;98940.34;5077694;28;20048;-55
2022/05/14 01:15:47;;;;;;;0.60;0.60;;;;;;;4.20;92.04;98952.38;5075522;28;20084;-54
2022/05/14 01:18:20;;;;;;;0.52;0.52;;;;;;;3.95;92.10;98919.94;5077298;28;20061;-54
2022/05/14 01:20:57;;;;;;;0.60;0.60;;;;;;;4.22;92.19;98971.31;5075158;28;20351;-56
2022/05/14 01:26:31;;;;;;;0.60;0.60;;;;;;;4.25;92.25;98939.41;5077180;28;20091;-55
2022/05/14 01:29:05;;;;;;;0.60;0.60;;;;;;;4.28;92.26;98942.78;5077417;28;20048;-56
2022/05/14 01:31:37;;;;;;;0.82;0.68;;;;;;;4.22;92.13;98914.44;5076047;28;20087;-57
2022/05/14 01:34:10;;;;;;;0.63;0.63;;;;;;;4.18;91.56;98920.50;5074599;28;20087;-56
2022/05/14 01:36:42;;;;;;;0.80;0.68;;;;;;;4.18;91.95;98917.06;5077015;28;20098;-56
2022/05/14 01:39:13;;;;;;;0.60;0.60;;;;;;;3.85;92.57;98852.84;5075184;28;20214;-51
2022/05/14 01:41:45;;;;;;;0.98;0.60;;;;;;;4.04;92.02;98878.44;5076888;28;20095;-55
2022/05/14 01:44:17;;;;;;;0.60;0.60;;;;;;;4.13;92.41;98882.66;5076829;28;20052;-54
2022/05/14 01:46:48;;;;;;;0.90;0.82;;;;;;;4.19;93.05;98861.91;5074346;28;20128;-54
2022/05/14 01:49:18;;;;;;;0.55;0.55;;;;;;;4.13;92.39;98868.00;5074248;28;20044;-55
2022/05/14 01:51:50;;;;;;;0.60;0.60;;;;;;;4.12;92.24;98861.13;5076903;28;20063;-54
2022/05/14 01:54:20;;;;;;;0.63;0.60;;;;;;;4.17;92.12;98863.63;5074518;28;20064;-55
2022/05/14 01:56:53;;;;;;;2.58;0.60;;;;;;;4.18;91.90;98871.38;5076891;28;20052;-57
2022/05/14 01:59:24;;;;;;;0.50;0.50;;;;;;;4.11;91.45;98854.25;5076949;28;20238;-56
2022/05/14 02:01:54;;;;;;;0.50;0.50;;;;;;;4.10;91.93;98837.03;5076831;28;20239;-54
2022/05/14 02:04:25;;;;;;;0.50;0.50;;;;;;;4.16;91.63;98842.13;5076874;28;20052;-55
2022/05/14 02:06:55;;;;;;;0.60;0.60;;;;;;;4.14;91.89;98835.25;5077810;28;20254;-55
2022/05/14 02:09:26;;;;;;;0.50;0.50;;;;;;;4.20;91.81;98817.09;5077678;28;20048;-56
2022/05/14 02:11:59;;;;;;;1.25;0.60;;;;;;;4.05;91.45;98798.31;5077863;28;20119;-57
2022/05/14 02:14:30;;;;;;;2.03;1.45;;;;;;;4.16;91.62;98790.41;5077110;28;20054;-56
2022/05/14 02:17:00;;;;;;;3.13;1.95;;;;;;;4.13;91.48;98795.63;5077438;28;20080;-56
2022/05/14 02:19:31;;;;;;;5.18;4.70;;;;;;;4.05;91.75;98787.97;5071087;28;20048;-56
2022/05/14 02:22:03;;;;;;;1.20;1.20;;;;;;;3.91;91.82;98758.03;5075983;28;20052;-57
2022/05/14 02:24:34;;;;;;;2.45;1.90;;;;;;;4.05;91.44;98761.28;5076057;28;20099;-53
2022/05/14 02:27:07;;;;;;;4.13;3.72;;;;;;;3.94;92.32;98763.16;5076016;28;20382;-54
2022/05/14 02:29:54;;;;;;;3.95;3.55;;;;;;;4.05;92.07;98756.13;5073687;28;20291;-56
2022/05/14 02:32:27;;;;;;;3.03;2.20;;;;;;;3.96;91.38;98736.41;5074588;28;20052;-57
2022/05/14 02:34:59;;;;;;;1.67;1.55;;;;;;;4.00;91.19;98747.56;5074029;28;20076;-57
2022/05/14 02:37:30;;;;;;;2.15;2.00;;;;;;;3.96;91.77;98727.81;5076370;28;20083;-56
2022/05/14 02:40:00;;;;;;;2.75;2.55;;;;;;;3.94;91.44;98701.13;5073908;28;20075;-58
2022/05/14 02:42:33;;;;;;;3.15;2.85;;;;;;;3.94;91.69;98721.81;5076099;28;20044;-55
2022/05/14 02:45:04;;;;;;;1.10;1.02;;;;;;;3.87;91.46;98719.31;5074215;28;20308;-55
2022/05/14 02:47:35;;;;;;;2.92;2.67;;;;;;;3.84;92.73;98732.28;5074387;28;20060;-57
2022/05/14 02:50:06;;;;;;;1.38;1.27;;;;;;;3.80;92.52;98719.44;5076192;28;20107;-56
2022/05/14 02:52:37;;;;;;;5.00;4.60;;;;;;;3.74;93.24;98694.50;5076715;28;20555;-55
2022/05/14 02:55:09;;;;;;;48.90;31.30;;;;;;;3.81;93.14;98696.13;5076873;28;20044;-54
2022/05/14 02:57:42;;;;;;;6.97;4.68;;;;;;;3.85;92.54;98682.31;5074986;28;20060;-56
2022/05/14 03:00:17;;;;;;;4.18;3.30;;;;;;;3.79;92.67;98692.72;5076368;28;20094;-55
2022/05/14 03:02:48;;;;;;;8.05;7.28;;;;;;;3.87;92.88;98675.38;5076803;28;20245;-55
2022/05/14 03:05:20;;;;;;;4.93;4.45;;;;;;;3.71;92.87;98663.56;5075218;28;20048;-54
2022/05/14 03:07:51;;;;;;;2.95;2.60;;;;;;;3.82;93.11;98659.09;5068005;28;20660;-56
2022/05/14 03:10:22;;;;;;;6.38;5.22;;;;;;;3.79;92.37;98635.88;5072235;28;20091;-57
2022/05/14 03:12:54;;;;;;;6.03;5.43;;;;;;;3.81;92.66;98633.28;5071479;28;20350;-57
2022/05/14 03:15:25;;;;;;;6.35;4.05;;;;;;;3.81;91.88;98617.78;5071644;28;20049;-57
2022/05/14 03:17:55;;;;;;;20.85;13.85;;;;;;;3.75;91.61;98594.63;5074543;28;20465;-57
2022/05/14 03:20:26;;;;;;;58.17;34.95;;;;;;;3.75;92.11;98598.06;5075443;28;20056;-57
2022/05/14 03:22:57;;;;;;;96.88;64.22;;;;;;;3.76;91.83;98588.56;5074769;28;20082;-56
2022/05/14 03:25:27;;;;;;;52.35;34.33;;;;;;;3.80;91.97;98585.94;5074375;28;20634;-56
2022/05/14 03:28:00;;;;;;;99.60;68.57;;;;;;;3.76;91.70;98599.75;5075482;28;20394;-57
2022/05/14 03:30:30;;;;;;;58.53;43.85;;;;;;;3.78;92.23;98577.34;5075533;28;20064;-57
2022/05/14 03:33:01;;;;;;;21.95;16.02;;;;;;;3.86;91.95;98570.31;5075558;28;20064;-57
2022/05/14 03:35:32;;;;;;;13.73;7.07;;;;;;;3.92;91.57;98553.00;5075819;28;20044;-57
2022/05/14 03:38:02;;;;;;;29.52;21.73;;;;;;;3.91;92.00;98546.13;5073004;28;20041;-57
2022/05/14 03:40:33;;;;;;;23.65;14.18;;;;;;;3.89;91.83;98544.44;5074128;28;20071;-57
2022/05/14 03:43:05;;;;;;;16.88;9.85;;;;;;;3.87;91.56;98546.19;5074233;28;20116;-57
2022/05/14 03:45:36;;;;;;;81.43;60.42;;;;;;;3.84;91.36;98530.75;5075273;28;20564;-57
2022/05/14 03:48:07;;;;;;;47.50;31.77;;;;;;;3.82;91.37;98529.91;5075722;28;20067;-56
2022/05/14 03:50:38;;;;;;;25.67;17.50;;;;;;;3.74;91.28;98493.00;5075034;28;20054;-58
2022/05/14 03:53:08;;;;;;;54.45;34.17;;;;;;;3.72;91.05;98489.63;5074817;28;20060;-57
2022/05/14 03:55:39;;;;;;;16.60;11.35;;;;;;;3.71;90.75;98498.22;5075531;28;20060;-56
2022/05/14 03:58:12;;;;;;;14.55;8.98;;;;;;;3.55;90.98;98504.56;5075150;28;20258;-56
2022/05/14 04:00:42;;;;;;;15.23;9.65;;;;;;;3.56;91.20;98501.06;5075568;28;20116;-56
2022/05/14 04:03:13;;;;;;;46.78;28.75;;;;;;;3.53;91.57;98490.81;5074310;28;20330;-57
2022/05/14 04:05:44;;;;;;;35.80;23.08;;;;;;;3.52;92.00;98476.16;5074165;28;20063;-57
2022/05/14 04:08:15;;;;;;;7.28;4.93;;;;;;;3.61;92.35;98487.19;5075378;28;20103;-56
2022/05/14 04:10:46;;;;;;;4.75;2.88;;;;;;;3.68;91.95;98482.78;5075598;28;20041;-56
2022/05/14 04:13:18;;;;;;;2.10;1.77;;;;;;;3.62;91.46;98477.72;5072509;28;20058;-57
2022/05/14 04:15:49;;;;;;;2.58;1.60;;;;;;;3.63;91.98;98469.09;5075170;28;20067;-57
2022/05/14 04:18:24;;;;;;;2.63;1.02;;;;;;;3.67;91.74;98455.28;5075105;28;20052;-57
2022/05/14 04:20:56;;;;;;;1.23;1.10;;;;;;;3.66;91.44;98453.56;5071979;28;20083;-57
2022/05/14 04:23:28;;;;;;;0.70;0.70;;;;;;;3.58;91.71;98445.09;5074170;28;20044;-57
2022/05/14 04:25:59;;;;;;;0.70;0.70;;;;;;;3.62;91.43;98462.22;5075466;28;20070;-57
2022/05/14 04:28:32;;;;;;;4.50;0.82;;;;;;;3.32;91.61;98443.81;5074398;28;20357;-56
2022/05/14 04:31:02;;;;;;;0.73;0.65;;;;;;;3.54;91.82;98448.59;5075614;28;20048;-57
2022/05/14 04:33:33;;;;;;;0.73;0.70;;;;;;;3.52;91.20;98440.00;5074976;28;20422;-57
2022/05/14 04:36:04;;;;;;;0.93;0.70;;;;;;;3.50;91.03;98422.00;5075474;28;20414;-58
2022/05/14 04:38:34;;;;;;;0.55;0.55;;;;;;;3.51;91.28;98428.00;5075172;28;20128;-56
2022/05/14 04:41:05;;;;;;;0.63;0.63;;;;;;;3.60;91.30;98425.25;5073532;28;20099;-58
2022/05/14 04:43:38;;;;;;;0.85;0.70;;;;;;;3.55;90.55;98414.16;5074711;28;20066;-57
2022/05/14 04:46:09;;;;;;;0.90;0.80;;;;;;;3.46;91.04;98400.50;5074199;28;20354;-56
2022/05/14 04:48:40;;;;;;;0.70;0.70;;;;;;;3.44;90.60;98401.41;5074232;28;20044;-57
2022/05/14 04:51:10;;;;;;;0.88;0.82;;;;;;;3.46;91.36;98397.94;5075043;28;20060;-57
2022/05/14 04:53:41;;;;;;;1.02;0.80;;;;;;;3.43;90.75;98415.22;5074630;28;20080;-57
2022/05/14 04:56:12;;;;;;;0.80;0.80;;;;;;;3.41;91.30;98402.31;5074890;28;20064;-56
2022/05/14 04:58:44;;;;;;;0.85;0.77;;;;;;;3.37;91.35;98395.53;5075293;28;20330;-57
2022/05/14 05:01:16;;;;;;;2.70;1.23;;;;;;;3.35;91.70;98392.13;5074869;28;20355;-56
2022/05/14 05:03:45;;;;;;;0.75;0.75;;;;;;;3.34;91.32;98384.38;5074223;28;20044;-56
2022/05/14 05:06:18;;;;;;;1.65;1.10;;;;;;;3.36;92.02;98378.31;5074029;28;20115;-56
2022/05/14 05:08:49;;;;;;;2.60;1.95;;;;;;;3.38;91.78;98366.25;5074552;28;20549;-56
2022/05/14 05:11:20;;;;;;;1.02;0.90;;;;;;;3.20;91.52;98351.09;5073837;28;20566;-54
2022/05/14 05:13:53;;;;;;;1.85;1.05;;;;;;;2.93;91.72;98317.13;5074561;28;20486;-56
2022/05/14 05:16:23;;;;;;;1.35;1.10;;;;;;;3.16;92.12;98344.25;5074393;28;20076;-56
2022/05/14 05:18:54;;;;;;;1.65;1.40;;;;;;;3.19;92.48;98341.63;5074426;28;20051;-56
2022/05/14 05:21:25;;;;;;;3.33;1.30;;;;;;;3.20;92.68;98356.25;5074412;28;20052;-55
2022/05/14 05:23:55;;;;;;;5.90;1.92;;;;;;;3.21;92.99;98337.28;5074594;28;20048;-56
2022/05/14 05:26:26;;;;;;;5.65;1.40;;;;;;;3.18;92.52;98329.63;5072869;28;20123;-57
2022/05/14 05:28:58;;;;;;;0.80;0.80;;;;;;;3.15;92.19;98327.09;5074774;28;20052;-56
2022/05/14 05:31:29;;;;;;;1.58;0.90;;;;;;;3.22;92.07;98336.41;5074592;28;20044;-57
2022/05/14 05:34:00;;;;;;;1.05;0.80;;;;;;;3.15;91.97;98333.09;5074359;28;20060;-57
2022/05/14 05:36:31;;;;;;;1.10;0.80;;;;;;;3.12;91.76;98309.06;5074171;28;20064;-56
2022/05/14 05:39:02;;;;;;;2.35;0.90;;;;;;;3.11;91.93;98285.00;5074137;28;20048;-56
2022/05/14 05:41:32;;;;;;;1.20;0.90;;;;;;;3.12;92.39;98306.47;5074236;28;20056;-56
2022/05/14 05:44:05;;;;;;;3.58;0.90;;;;;;;2.96;92.08;98288.69;5074226;28;20083;-56
2022/05/14 05:46:36;;;;;;;1.00;0.80;;;;;;;3.07;91.51;98282.47;5074473;28;20101;-56
2022/05/14 05:49:07;;;;;;;0.80;0.80;;;;;;;3.03;91.97;98261.91;5074232;28;20045;-56
2022/05/14 05:51:37;;;;;;;0.88;0.80;;;;;;;2.98;91.76;98268.88;5074505;28;20128;-56
2022/05/14 05:56:57;;;;;;;1.50;0.98;;;;;;;2.94;91.97;98244.00;5074247;28;20052;-56
2022/05/14 05:59:32;;;;;;;0.90;0.77;;;;;;;2.87;92.17;98237.28;5074395;28;20079;-57
2022/05/14 06:02:03;;;;;;;1.38;0.90;;;;;;;2.97;91.99;98241.38;5073838;28;20086;-56
2022/05/14 06:04:34;;;;;;;1.25;0.90;;;;;;;2.99;92.31;98226.72;5073272;28;20070;-57
2022/05/14 06:07:05;;;;;;;0.70;0.70;;;;;;;2.74;92.07;98173.88;5073778;28;20075;-57
2022/05/14 06:09:37;;;;;;;0.60;0.60;;;;;;;2.99;92.19;98221.53;5073951;28;20052;-56
2022/05/14 06:12:08;;;;;;;3.70;0.60;;;;;;;2.99;91.94;98229.28;5073586;28;20452;-58
2022/05/14 06:14:41;;;;;;;0.50;0.50;;;;;;;2.95;91.80;98207.03;5073428;28;20058;-57
2022/05/14 06:17:12;;;;;;;0.60;0.60;;;;;;;2.99;91.79;98192.31;5073627;28;20120;-58
2022/05/14 06:19:43;;;;;;;0.70;0.70;;;;;;;2.91;91.44;98178.72;5073422;28;20044;-57
2022/05/14 06:22:13;;;;;;;1.65;0.60;;;;;;;2.87;91.52;98182.22;5073454;28;20469;-58
2022/05/14 06:24:44;;;;;;;0.50;0.50;;;;;;;2.91;92.11;98184.72;5073497;28;20056;-57
2022/05/14 06:27:15;;;;;;;1.65;0.60;;;;;;;2.94;92.10;98179.50;5073342;28;20060;-58
2022/05/14 06:29:47;;;;;;;0.50;0.50;;;;;;;2.96;92.55;98167.44;5073337;28;20051;-58
2022/05/14 06:32:18;;;;;;;0.55;0.55;;;;;;;3.00;91.59;98168.25;5073272;28;20066;-58
2022/05/14 06:34:48;;;;;;;0.50;0.50;;;;;;;2.98;91.17;98170.00;5072816;28;20054;-58
2022/05/14 06:37:19;;;;;;;0.60;0.60;;;;;;;2.87;91.83;98162.47;5072931;28;20087;-58
2022/05/14 06:39:50;;;;;;;0.95;0.60;;;;;;;2.87;92.11;98162.47;5073302;28;20052;-58
2022/05/14 06:42:20;;;;;;;2.88;0.90;;;;;;;2.91;92.04;98153.78;5073261;28;20220;-58
2022/05/14 06:44:55;;;;;;;0.60;0.60;;;;;;;2.71;91.77;98136.09;5073164;28;20036;-58
2022/05/14 06:47:26;;;;;;;3.03;0.77;;;;;;;2.85;91.44;98133.28;5073545;28;20115;-58
2022/05/14 06:49:57;;;;;;;0.60;0.60;;;;;;;2.84;91.71;98135.88;5073349;28;20062;-58
2022/05/14 06:52:28;;;;;;;0.50;0.50;;;;;;;2.89;91.85;98134.91;5072873;28;20299;-59
2022/05/14 06:54:59;;;;;;;0.55;0.55;;;;;;;2.91;91.96;98102.19;5072944;28;20474;-58
2022/05/14 06:57:33;;;;;;;1.40;0.63;;;;;;;2.84;91.44;98120.41;5072967;28;20052;-59
2022/05/14 07:00:07;;;;;;;0.55;0.55;;;;;;;2.78;91.76;98116.22;5072937;28;20063;-56
2022/05/14 07:02:38;;;;;;;0.60;0.60;;;;;;;2.62;91.75;98066.69;5072982;28;20067;-57
2022/05/14 07:08:07;;;;;;;0.73;0.57;;;;;;;2.87;92.21;98063.59;5041771;28;20083;-57
2022/05/14 07:10:38;;;;;;;1.27;0.70;;;;;;;2.90;92.26;98059.22;5073183;28;20184;-57
2022/05/14 07:13:09;;;;;;;0.57;0.57;;;;;;;2.89;92.09;98057.50;5071721;28;20116;-57
2022/05/14 07:15:41;;;;;;;1.10;0.60;;;;;;;2.89;92.10;98047.19;5072425;28;20083;-57
2022/05/14 07:18:12;;;;;;;0.73;0.60;;;;;;;2.84;91.90;98043.88;5072825;28;20040;-57
2022/05/14 07:20:43;;;;;;;1.20;0.60;;;;;;;2.75;91.91;98023.44;5072872;28;20306;-58
2022/05/14 07:23:14;;;;;;;0.60;0.60;;;;;;;2.70;92.42;98035.59;5073002;28;20083;-58
2022/05/14 07:25:44;;;;;;;1.55;0.60;;;;;;;2.63;92.15;98034.00;5072721;28;20083;-57
2022/05/14 07:28:15;;;;;;;1.63;0.65;;;;;;;2.68;92.12;98033.03;5072738;28;20056;-58
2022/05/14 07:30:47;;;;;;;1.77;0.70;;;;;;;2.70;91.88;98031.28;5072966;28;20055;-57
2022/05/14 07:33:18;;;;;;;3.17;0.80;;;;;;;2.66;92.08;98018.47;5072980;28;20115;-58
2022/05/14 07:35:48;;;;;;;0.70;0.70;;;;;;;2.67;92.21;98015.00;5073102;28;20053;-58
2022/05/14 07:38:21;;;;;;;1.02;0.80;;;;;;;2.66;92.69;98028.78;5072680;28;20098;-57
2022/05/14 07:40:52;;;;;;;0.80;0.80;;;;;;;2.71;92.55;98032.13;5073268;28;20119;-58
2022/05/14 07:43:27;;;;;;;1.88;0.93;;;;;;;2.70;92.43;98035.59;5073010;28;20056;-58
2022/05/14 07:46:03;;;;;;;1.40;0.80;;;;;;;2.70;92.41;97982.28;5073088;28;20060;-59
2022/05/14 07:48:37;;;;;;;7.97;1.10;;;;;;;2.71;92.45;97996.00;5072366;28;20066;-58
2022/05/14 07:51:10;;;;;;;0.75;0.70;;;;;;;2.66;91.92;97979.78;5070098;28;20441;-57
2022/05/14 07:53:41;;;;;;;1.60;0.90;;;;;;;2.67;92.07;97973.75;5072840;28;20151;-57
2022/05/14 07:56:12;;;;;;;1.48;0.70;;;;;;;2.52;92.00;97980.94;5072299;28;20342;-57
2022/05/14 07:58:43;;;;;;;1.83;0.80;;;;;;;2.57;92.17;97978.25;5072932;28;20116;-58
2022/05/14 08:01:16;;;;;;;1.10;1.00;;;;;;;2.55;92.36;97969.72;5072718;28;20335;-58
2022/05/14 08:03:49;;;;;;;0.60;0.60;;;;;;;2.57;92.52;97979.13;5074995;28;20315;-58
2022/05/14 08:06:20;;;;;;;2.28;0.77;;;;;;;2.55;92.28;97975.72;5076166;28;20235;-58
2022/05/14 08:08:51;;;;;;;1.60;0.80;;;;;;;2.48;92.46;97989.59;5075998;28;20048;-56
2022/05/14 08:11:22;;;;;;;0.70;0.70;;;;;;;2.35;92.51;97957.22;5075732;28;20053;-57
2022/05/14 08:13:54;;;;;;;0.70;0.60;;;;;;;2.45;91.79;97983.69;5075877;28;20135;-57
2022/05/14 08:16:27;;;;;;;1.95;0.70;;;;;;;2.44;92.15;97998.25;5075623;28;20056;-56
2022/05/14 08:18:58;;;;;;;0.90;0.63;;;;;;;2.48;92.44;98010.22;5076432;28;20052;-55
2022/05/14 08:24:34;;;;;;;0.75;0.65;;;;;;;2.42;92.49;98005.22;5015681;28;20433;-56
2022/05/14 08:27:07;;;;;;;0.60;0.60;;;;;;;2.42;92.59;97997.47;5015744;28;20116;-54
2022/05/14 08:29:42;;;;;;;1.40;0.70;;;;;;;2.41;92.63;97961.41;5015227;28;20092;-56
2022/05/14 08:32:18;;;;;;;0.60;0.60;;;;;;;2.35;92.68;97967.53;5013745;28;20283;-56
2022/05/14 08:34:49;;;;;;;9.18;1.13;;;;;;;2.34;92.64;97973.56;5016065;28;20046;-54
2022/05/14 08:37:20;;;;;;;1.23;1.10;;;;;;;2.25;92.24;97991.81;5014496;28;20061;-57
2022/05/14 08:39:51;;;;;;;2.05;0.90;;;;;;;2.07;92.84;97991.28;5015224;28;20112;-56
2022/05/14 08:42:21;;;;;;;6.68;0.90;;;;;;;2.27;92.68;98002.91;5015608;28;20355;-55
2022/05/14 08:44:53;;;;;;;2.33;0.70;;;;;;;2.14;92.54;98010.00;5015569;28;20058;-56
2022/05/14 08:47:39;;;;;;;0.63;0.60;;;;;;;2.05;93.08;97984.44;5015033;28;20163;-57
2022/05/14 08:50:11;;;;;;;1.67;0.68;;;;;;;2.00;92.92;97935.59;5015457;28;20041;-57
2022/05/14 08:52:43;;;;;;;0.60;0.60;;;;;;;1.95;93.51;97916.81;5015050;28;20279;-58
2022/05/14 08:55:19;;;;;;;0.85;0.70;;;;;;;2.07;93.60;97968.09;5015343;28;20129;-57
2022/05/14 08:58:04;;;;;;;2.05;0.70;;;;;;;2.06;93.57;97974.09;5015046;28;20049;-57
2022/05/14 09:00:35;;;;;;;0.65;0.65;;;;;;;1.95;93.33;97813.78;5015249;28;20076;-59
2022/05/14 09:03:07;;;;;;;0.60;0.60;;;;;;;2.06;93.64;97909.69;5014541;28;20085;-58
2022/05/14 09:05:39;;;;;;;1.10;0.70;;;;;;;2.01;93.52;97890.91;5014098;28;20144;-58
2022/05/14 09:08:10;;;;;;;1.10;0.80;;;;;;;2.15;93.41;97888.91;5013989;28;20050;-58
2022/05/14 09:10:42;;;;;;;0.60;0.60;;;;;;;2.15;93.24;97870.88;5014196;28;20077;-58
2022/05/14 09:13:16;;;;;;;0.75;0.65;;;;;;;2.15;92.77;97883.75;5014173;28;20050;-58
2022/05/14 09:15:49;;;;;;;0.70;0.70;;;;;;;2.14;92.78;97882.03;5014379;28;20057;-58
2022/05/14 09:18:25;;;;;;;0.60;0.60;;;;;;;2.10;92.55;97875.28;5012633;28;20046;-58
2022/05/14 09:20:58;;;;;;;0.77;0.70;;;;;;;2.11;92.75;97856.34;5014132;28;20344;-59
2022/05/14 09:23:34;;;;;;;1.77;0.90;;;;;;;2.18;92.25;97887.16;5013104;28;20053;-58
2022/05/14 09:26:11;;;;;;;0.95;0.65;;;;;;;2.16;91.90;97867.41;5013787;28;20068;-59
2022/05/14 09:28:46;;;;;;;0.50;0.50;;;;;;;2.08;92.06;97866.72;5012895;28;20304;-59
2022/05/14 09:31:26;;;;;;;0.50;0.50;;;;;;;2.10;92.17;97870.13;5012956;28;20113;-59
2022/05/14 09:34:14;;;;;;;0.50;0.50;;;;;;;2.08;91.97;97866.72;5013905;28;20217;-59
2022/05/14 09:36:48;;;;;;;1.10;1.00;;;;;;;1.99;91.99;97866.91;5014543;28;20054;-59
2022/05/14 09:39:21;;;;;;;0.82;0.68;;;;;;;1.99;92.21;97877.22;5014412;28;20057;-59
2022/05/14 09:41:54;;;;;;;1.55;0.70;;;;;;;2.04;92.11;97875.38;5014357;28;20186;-59
2022/05/14 09:44:26;;;;;;;1.27;0.80;;;;;;;2.01;92.30;97844.56;5013209;28;20068;-59
2022/05/14 09:47:08;;;;;;;1.25;0.70;;;;;;;2.00;92.47;97836.84;5014087;28;20050;-60
2022/05/14 09:49:54;;;;;;;0.82;0.70;;;;;;;1.75;93.07;97805.59;5014161;28;20061;-59
2022/05/14 09:52:29;;;;;;;4.28;0.80;;;;;;;1.64;93.13;97773.22;5013583;28;20053;-59
2022/05/14 09:55:01;;;;;;;4.28;1.10;;;;;;;2.06;93.42;97809.25;5013611;28;20053;-59
2022/05/14 09:57:44;;;;;;;2.15;1.00;;;;;;;2.05;92.59;97786.94;5014220;28;20045;-59
2022/05/14 10:00:19;;;;;;;1.27;0.95;;;;;;;1.95;93.40;97767.44;5013210;28;20391;-59
2022/05/14 10:03:27;;;;;;;1.30;0.90;;;;;;;1.95;93.06;97757.13;5013628;28;20065;-58
2022/05/14 10:06:10;;;;;;;2.55;1.20;;;;;;;1.91;93.49;97740.03;5013155;28;20225;-59
2022/05/14 10:08:59;;;;;;;3.47;1.10;;;;;;;1.86;93.77;97722.09;5013419;28;20077;-58
2022/05/14 10:11:33;;;;;;;3.30;1.23;;;;;;;1.79;93.66;97699.09;5013429;28;20077;-58
2022/05/14 10:14:28;;;;;;;3.15;1.20;;;;;;;1.83;93.92;97705.91;5013548;28;20076;-58
2022/05/14 10:17:15;;;;;;;5.07;1.25;;;;;;;1.82;94.30;97699.03;5013565;28;20077;-58
2022/05/14 10:20:07;;;;;;;6.93;1.50;;;;;;;1.83;94.23;97695.59;5013146;28;20092;-58
2022/05/14 10:28:46;;;;;;;4.90;1.10;;;;;;;1.79;94.63;97696.53;5013653;28;20068;-58
2022/05/14 10:31:25;;;;;;;3.65;1.10;;;;;;;1.70;94.85;97675.28;5013459;28;20062;-58
2022/05/14 10:34:03;;;;;;;2.40;1.17;;;;;;;1.77;94.58;97698.28;5013154;28;20064;-59
2022/05/14 10:36:39;;;;;;;4.03;0.90;;;;;;;1.70;94.80;97695.88;5012951;28;20077;-58
2022/05/14 10:39:19;;;;;;;5.28;1.00;;;;;;;1.80;94.67;97711.09;5013134;28;20061;-59
2022/05/14 10:41:54;;;;;;;3.13;1.05;;;;;;;1.76;94.80;97701.75;5013281;28;20064;-58
2022/05/14 10:44:37;;;;;;;5.10;1.20;;;;;;;1.76;94.81;97694.88;5013328;28;20056;-58
2022/05/14 10:47:11;;;;;;;7.22;1.13;;;;;;;1.62;94.64;97661.75;5013155;28;20080;-58
2022/05/14 10:49:48;;;;;;;4.88;1.15;;;;;;;1.80;94.70;97690.50;5012985;28;20061;-57
2022/05/14 10:52:19;;;;;;;3.22;0.90;;;;;;;1.78;94.54;97698.28;5012569;28;20050;-58
2022/05/14 10:54:57;;;;;;;3.15;1.27;;;;;;;1.73;94.50;97680.34;5012913;28;20843;-57
2022/05/14 10:57:40;;;;;;;4.05;1.13;;;;;;;1.69;94.95;97662.41;5012893;28;20064;-58
2022/05/14 11:00:24;;;;;;;4.47;1.40;;;;;;;1.68;95.11;97651.28;5012779;28;20076;-57
2022/05/14 11:02:58;;;;;;;4.00;1.10;;;;;;;1.77;94.98;97659.66;5012733;28;20386;-58
2022/05/14 11:05:35;;;;;;;3.28;1.05;;;;;;;1.77;95.05;97657.09;5013494;28;20081;-57
2022/05/14 11:08:11;;;;;;;2.92;1.20;;;;;;;1.80;94.99;97659.59;5012837;28;20347;-58
2022/05/14 11:10:44;;;;;;;2.67;1.00;;;;;;;1.79;94.98;97653.59;5013340;28;20060;-59
2022/05/14 11:13:19;;;;;;;3.85;1.27;;;;;;;1.79;94.75;97663.06;5012594;28;20045;-58
2022/05/14 11:16:01;;;;;;;1.95;1.10;;;;;;;1.78;94.49;97651.09;5013238;28;20053;-58
2022/05/14 11:18:32;;;;;;;1.65;1.17;;;;;;;1.76;94.80;97647.69;5012689;28;20112;-58
2022/05/14 11:21:04;;;;;;;1.90;1.08;;;;;;;1.70;94.25;97628.94;5013003;28;20239;-58
2022/05/14 11:23:51;;;;;;;3.35;0.93;;;;;;;1.77;94.35;97631.34;5012883;28;20324;-58
2022/05/14 11:26:24;;;;;;;3.65;0.90;;;;;;;1.78;94.18;97622.78;5013067;28;20072;-58
2022/05/14 11:29:03;;;;;;;1.02;0.90;;;;;;;1.79;94.23;97611.56;5013226;28;20070;-59
2022/05/14 11:31:40;;;;;;;1.52;0.90;;;;;;;1.86;94.17;97602.81;5013568;28;20072;-58
2022/05/14 11:34:19;;;;;;;5.28;1.10;;;;;;;1.91;94.14;97596.66;5012785;28;20085;-58
2022/05/14 11:36:52;;;;;;;1.67;1.02;;;;;;;1.95;93.49;97602.63;5014011;28;20045;-59
2022/05/14 11:39:30;;;;;;;2.55;1.05;;;;;;;1.98;93.55;97597.38;5016192;28;20105;-59
2022/05/14 11:42:30;;;;;;;1.42;1.00;;;;;;;1.96;93.15;97599.13;5016698;28;20117;-59
2022/05/14 11:45:06;;;;;;;2.22;0.82;;;;;;;1.94;92.64;97598.31;5008049;28;20378;-59
2022/05/14 11:47:55;;;;;;;1.08;0.80;;;;;;;1.85;92.64;97593.41;5015597;28;20720;-59
2022/05/14 11:50:32;;;;;;;0.80;0.80;;;;;;;1.56;92.96;97551.19;5015916;28;20129;-59
2022/05/14 11:53:24;;;;;;;1.77;1.10;;;;;;;1.70;93.03;97580.03;5016272;28;20073;-59
2022/05/14 11:55:59;;;;;;;2.58;0.90;;;;;;;1.72;93.34;97596.28;5014465;28;20068;-59
2022/05/14 11:58:39;;;;;;;3.83;1.30;;;;;;;1.72;93.76;97588.56;5016379;28;20077;-59
2022/05/14 12:01:15;;;;;;;5.10;1.70;;;;;;;1.63;93.89;97575.91;5016117;28;20046;-58
2022/05/14 12:03:48;;;;;;;1.92;1.13;;;;;;;1.72;93.63;97578.25;5016419;28;20283;-58
2022/05/14 12:06:41;;;;;;;4.85;1.80;;;;;;;1.75;93.81;97584.19;5015954;28;20072;-58
2022/05/14 12:09:32;;;;;;;3.17;1.40;;;;;;;1.78;93.92;97579.00;5015956;28;20056;-59
2022/05/14 12:12:10;;;;;;;2.65;1.60;;;;;;;1.80;94.03;97584.94;5016252;28;20068;-58
2022/05/14 12:14:44;;;;;;;1.52;0.60;;;;;;;1.73;93.95;97572.22;5016093;28;20085;-58
2022/05/14 12:17:18;;;;;;;1.33;0.80;;;;;;;1.60;93.75;97555.38;5016216;28;20244;-57
2022/05/14 12:19:56;;;;;;;1.65;0.70;;;;;;;1.66;93.98;97575.81;5016144;28;20113;-58
2022/05/14 12:22:29;;;;;;;3.78;0.80;;;;;;;1.72;94.03;97580.84;5015974;28;20113;-57
2022/05/14 12:25:02;;;;;;;2.40;0.70;;;;;;;1.71;94.38;97579.13;5016123;28;20085;-58
2022/05/14 12:27:35;;;;;;;0.85;0.60;;;;;;;1.61;94.21;97562.22;5015997;28;20068;-57
2022/05/14 12:33:13;;;;;;;1.75;0.65;;;;;;;1.58;93.56;97577.75;5016032;28;20092;-56
2022/05/14 12:35:52;;;;;;;1.33;0.60;;;;;;;1.58;94.04;97562.28;5015707;28;20117;-55